Time;durP1;ratioP1;P1;durP2;ratioP2;P2;SDS_P1;SDS_P2;PMS_P1;PMS_P2;Temp;Humidity;BMP_temperature;BMP_pressure;BME280_temperature;BME280_humidity;BME280_pressure;Samples;Min_cycle;Max_cycle;Signal;HPM_P1;HPM_P2
2024/04/03 00:00:30;;;;;;;7.22;4.72;;;21.80;52.70;;;;;;10407492;28;20124;-51
2024/04/03 00:05:31;;;;;;;5.60;4.25;;;21.70;52.70;;;;;;10405804;28;20045;-50
2024/04/03 00:10:34;;;;;;;6.53;4.75;;;21.60;53.10;;;;;;10410559;28;20041;-50
2024/04/03 00:15:37;;;;;;;6.95;4.30;;;21.40;53.50;;;;;;10416780;28;20054;-54
2024/04/03 00:20:38;;;;;;;6.03;4.50;;;21.30;53.80;;;;;;10415037;28;20473;-50
2024/04/03 00:25:41;;;;;;;7.03;4.53;;;21.30;53.50;;;;;;10415771;28;20519;-54
2024/04/03 00:30:43;;;;;;;6.85;4.38;;;21.20;53.60;;;;;;10414830;28;20042;-51
2024/04/03 00:35:53;;;;;;;7.45;4.60;;;21.20;53.90;;;;;;10414486;28;20055;-52
2024/04/03 00:41:00;;;;;;;8.07;4.50;;;21.10;54.30;;;;;;10412272;28;20053;-53
2024/04/03 00:46:02;;;;;;;7.18;4.05;;;21.20;53.40;;;;;;10415219;28;20440;-59
2024/04/03 00:51:03;;;;;;;6.82;4.50;;;21.00;53.90;;;;;;10414077;28;20080;-58
2024/04/03 00:56:07;;;;;;;5.00;3.88;;;21.10;53.60;;;;;;10414409;28;20140;-53
2024/04/03 01:01:08;;;;;;;5.45;4.03;;;21.00;54.00;;;;;;10413234;28;20055;-56
2024/04/03 01:06:10;;;;;;;5.82;3.83;;;21.00;53.90;;;;;;10412460;28;20439;-51
2024/04/03 01:11:13;;;;;;;5.68;3.75;;;20.90;53.90;;;;;;10412531;28;20049;-55
2024/04/03 01:16:15;;;;;;;7.68;4.75;;;21.00;53.70;;;;;;10415075;28;20051;-58
2024/04/03 01:21:16;;;;;;;6.25;4.03;;;21.00;53.60;;;;;;10411664;28;20049;-59
2024/04/03 01:26:19;;;;;;;5.82;4.05;;;21.00;53.50;;;;;;10413745;28;20049;-60
2024/04/03 01:31:21;;;;;;;6.50;3.90;;;20.90;53.80;;;;;;10411577;28;20045;-60
2024/04/03 01:36:22;;;;;;;7.78;4.22;;;20.90;53.40;;;;;;10416607;28;20071;-59
2024/04/03 01:41:25;;;;;;;6.13;4.50;;;20.90;53.50;;;;;;10417086;28;20052;-61
2024/04/03 01:46:27;;;;;;;5.00;3.47;;;20.80;53.70;;;;;;10408955;28;20045;-57
2024/04/03 01:51:28;;;;;;;4.53;3.63;;;20.70;53.80;;;;;;10413197;28;20424;-60
2024/04/03 01:56:31;;;;;;;6.07;4.40;;;20.80;53.60;;;;;;10414854;28;20049;-57
2024/04/03 02:01:33;;;;;;;7.15;3.90;;;20.80;53.50;;;;;;10413979;28;20515;-56
2024/04/03 02:06:34;;;;;;;5.47;3.85;;;20.70;53.80;;;;;;10411158;28;20045;-59
2024/04/03 02:11:37;;;;;;;5.65;3.80;;;20.80;53.50;;;;;;10410973;28;20075;-58
2024/04/03 02:16:41;;;;;;;4.55;3.67;;;20.70;53.80;;;;;;10410902;28;20441;-57
2024/04/03 02:21:42;;;;;;;5.45;3.78;;;20.60;54.40;;;;;;10408467;28;20053;-60
2024/04/03 02:26:45;;;;;;;5.35;3.40;;;20.60;53.80;;;;;;10414313;28;20081;-59
2024/04/03 02:31:47;;;;;;;4.93;3.70;;;20.50;53.80;;;;;;10410667;28;20049;-57
2024/04/03 02:36:49;;;;;;;5.47;3.83;;;20.50;53.70;;;;;;10409144;28;20045;-60
2024/04/03 02:41:54;;;;;;;5.63;3.95;;;20.40;54.60;;;;;;10409658;28;20045;-60
2024/04/03 02:46:56;;;;;;;6.57;4.00;;;20.40;54.00;;;;;;10409435;28;20060;-57
2024/04/03 02:51:57;;;;;;;5.55;3.72;;;20.30;54.10;;;;;;10412091;28;20063;-57
2024/04/03 02:57:00;;;;;;;4.07;3.50;;;20.40;53.70;;;;;;10409653;28;20539;-56
2024/04/03 03:02:02;;;;;;;4.25;3.50;;;20.40;54.00;;;;;;10408708;28;20429;-58
2024/04/03 03:07:04;;;;;;;4.70;3.20;;;20.80;53.10;;;;;;10407329;28;20042;-59
2024/04/03 03:12:07;;;;;;;4.63;3.40;;;20.70;53.00;;;;;;10407407;28;20080;-57
2024/04/03 03:17:09;;;;;;;6.40;3.28;;;21.20;53.00;;;;;;10407098;28;20527;-59
2024/04/03 03:22:10;;;;;;;4.65;3.33;;;21.60;52.70;;;;;;10407307;28;20425;-60
2024/04/03 03:27:13;;;;;;;4.03;3.08;;;21.60;52.90;;;;;;10408327;28;20471;-57
2024/04/03 03:32:15;;;;;;;5.97;3.63;;;21.80;52.80;;;;;;10406383;28;20053;-57
2024/04/03 03:37:16;;;;;;;7.40;3.40;;;21.90;53.00;;;;;;10406358;28;20049;-61
2024/04/03 03:42:19;;;;;;;5.53;3.33;;;21.90;53.30;;;;;;10401992;28;20409;-57
2024/04/03 03:47:21;;;;;;;8.25;4.07;;;22.00;54.10;;;;;;10408150;28;20071;-61
2024/04/03 03:52:40;;;;;;;15.48;4.90;;;22.10;53.90;;;;;;10406088;28;20052;-58
2024/04/03 03:57:43;;;;;;;10.77;4.57;;;22.20;54.30;;;;;;10402158;28;20464;-55
2024/04/03 04:02:44;;;;;;;13.43;5.32;;;22.20;54.10;;;;;;10405351;28;20051;-58
2024/04/03 04:07:46;;;;;;;12.68;4.72;;;22.20;54.10;;;;;;10406301;28;20069;-54
2024/04/03 04:12:49;;;;;;;10.55;4.70;;;22.30;53.80;;;;;;10406732;28;20052;-54
2024/04/03 04:17:51;;;;;;;10.23;4.25;;;22.30;54.00;;;;;;10406005;28;20049;-60
2024/04/03 04:22:53;;;;;;;9.45;4.22;;;22.40;53.50;;;;;;10406531;28;20460;-54
2024/04/03 04:27:56;;;;;;;9.25;4.50;;;22.50;53.40;;;;;;10405455;28;20050;-53
2024/04/03 04:32:57;;;;;;;6.45;4.10;;;22.60;53.40;;;;;;10404809;28;20095;-56
2024/04/03 04:37:59;;;;;;;9.32;4.20;;;22.50;53.70;;;;;;10406312;28;20050;-54
2024/04/03 04:43:02;;;;;;;8.07;3.78;;;22.40;54.20;;;;;;10405681;28;20048;-56
2024/04/03 04:48:04;;;;;;;7.28;3.75;;;22.40;54.50;;;;;;10405447;28;20037;-55
2024/04/03 04:53:06;;;;;;;7.65;3.40;;;22.50;54.60;;;;;;10407015;28;20056;-54
2024/04/03 04:58:09;;;;;;;7.10;3.92;;;22.50;54.70;;;;;;10411079;28;20045;-53
2024/04/03 05:03:10;;;;;;;7.05;3.67;;;22.50;55.10;;;;;;10412018;28;20107;-53
2024/04/03 05:08:12;;;;;;;6.53;3.42;;;22.40;55.30;;;;;;10414168;28;20050;-50
2024/04/03 05:13:15;;;;;;;9.40;3.15;;;22.50;55.40;;;;;;10412632;28;20128;-49
2024/04/03 05:18:17;;;;;;;6.88;2.95;;;22.50;55.80;;;;;;10412343;28;20067;-50
2024/04/03 05:23:18;;;;;;;8.32;3.13;;;22.50;56.10;;;;;;10411083;28;20053;-52
2024/04/03 05:28:21;;;;;;;6.88;3.03;;;22.60;56.70;;;;;;10410721;28;20042;-50
2024/04/03 05:33:23;;;;;;;5.40;2.97;;;22.60;55.90;;;;;;10410754;28;20044;-48
2024/04/03 05:38:24;;;;;;;4.85;2.78;;;22.70;56.10;;;;;;10409734;28;20045;-53
2024/04/03 05:43:28;;;;;;;6.53;2.92;;;22.50;56.10;;;;;;10414531;28;20060;-56
2024/04/03 05:48:29;;;;;;;7.93;3.40;;;22.50;56.30;;;;;;10415002;28;20052;-54
2024/04/03 05:53:31;;;;;;;9.18;2.97;;;22.40;56.30;;;;;;10409647;28;20505;-53
2024/04/03 05:58:34;;;;;;;12.57;3.17;;;22.70;56.30;;;;;;10410979;28;20045;-57
2024/04/03 06:03:36;;;;;;;9.43;2.80;;;22.50;56.80;;;;;;10411408;28;20485;-56
2024/04/03 06:08:39;;;;;;;10.95;2.70;;;22.30;57.10;;;;;;10408235;28;21532;-47
2024/04/03 06:13:42;;;;;;;12.10;2.42;;;22.30;56.80;;;;;;10411362;28;20417;-46
2024/04/03 06:18:43;;;;;;;11.57;2.97;;;22.50;56.70;;;;;;10409272;28;20045;-50
2024/04/03 06:23:45;;;;;;;6.57;2.00;;;22.50;56.90;;;;;;10411609;28;20053;-45
2024/04/03 06:28:48;;;;;;;5.55;1.90;;;22.10;55.70;;;;;;10397947;28;20048;-54
2024/04/03 06:33:51;;;;;;;7.03;2.13;;;22.00;55.90;;;;;;10404223;28;20055;-47
2024/04/03 06:38:53;;;;;;;4.97;2.00;;;22.00;56.10;;;;;;10405790;28;20069;-55
2024/04/03 06:43:56;;;;;;;6.28;1.67;;;21.90;56.10;;;;;;10396084;28;20045;-55
2024/04/03 06:48:57;;;;;;;5.53;1.90;;;21.90;56.00;;;;;;10396727;28;20046;-49
2024/04/03 06:53:59;;;;;;;4.85;1.88;;;21.90;56.00;;;;;;10398588;28;20061;-47
2024/04/03 06:59:02;;;;;;;4.40;1.55;;;21.90;56.00;;;;;;10395665;28;20046;-52
2024/04/03 07:04:04;;;;;;;4.00;1.50;;;21.80;55.80;;;;;;10391949;28;20053;-54
2024/04/03 07:09:07;;;;;;;4.38;1.85;;;21.80;55.60;;;;;;10406043;28;20051;-51
2024/04/03 07:14:09;;;;;;;3.30;1.77;;;21.70;55.70;;;;;;10400416;28;20089;-47
2024/04/03 07:19:11;;;;;;;4.32;1.80;;;21.80;55.30;;;;;;10392556;28;20045;-47
2024/04/03 07:24:13;;;;;;;3.35;1.30;;;21.80;55.10;;;;;;10393239;28;20050;-46
2024/04/03 07:29:20;;;;;;;3.17;1.80;;;22.00;54.50;;;;;;10400411;28;20506;-47
2024/04/03 07:34:21;;;;;;;4.07;1.65;;;22.10;53.90;;;;;;10396726;28;20045;-46
2024/04/03 07:39:25;;;;;;;3.33;1.70;;;22.20;53.60;;;;;;10391389;28;20056;-49
2024/04/03 07:44:28;;;;;;;2.72;1.38;;;22.00;53.80;;;;;;10392450;28;20081;-48
2024/04/03 07:49:30;;;;;;;2.03;1.10;;;21.70;54.50;;;;;;10402771;28;20047;-49
2024/04/03 07:54:31;;;;;;;1.50;1.20;;;21.50;54.90;;;;;;10396812;28;20047;-47
2024/04/03 07:59:34;;;;;;;2.22;1.30;;;21.50;54.80;;;;;;10396243;28;20037;-46
2024/04/03 08:04:36;;;;;;;2.50;1.23;;;21.50;54.80;;;;;;10392874;28;20693;-49
2024/04/03 08:09:37;;;;;;;3.92;1.30;;;21.50;54.80;;;;;;10394195;28;20682;-46
2024/04/03 08:14:40;;;;;;;2.20;1.13;;;21.50;54.60;;;;;;10392372;28;20612;-47
2024/04/03 08:19:42;;;;;;;1.33;1.10;;;21.60;54.30;;;;;;10389187;28;20064;-51
2024/04/03 08:24:44;;;;;;;2.40;1.00;;;21.50;54.20;;;;;;10390863;28;20064;-47
2024/04/03 08:29:48;;;;;;;1.38;1.02;;;21.50;54.20;;;;;;10402234;28;20046;-48
2024/04/03 08:34:51;;;;;;;1.77;0.90;;;21.60;54.30;;;;;;10401546;28;20046;-47
2024/04/03 08:39:53;;;;;;;1.80;1.10;;;21.60;54.10;;;;;;10399334;28;20393;-51
2024/04/03 08:44:56;;;;;;;2.22;1.23;;;21.60;53.80;;;;;;10405609;28;20050;-47
2024/04/03 08:49:57;;;;;;;1.10;1.00;;;21.70;53.70;;;;;;10401854;28;20049;-53
2024/04/03 08:55:00;;;;;;;1.30;1.10;;;21.70;54.30;;;;;;10395715;28;20049;-48
2024/04/03 09:00:03;;;;;;;1.33;0.90;;;21.70;53.70;;;;;;10354233;28;20038;-46
2024/04/03 09:05:06;;;;;;;1.35;1.00;;;21.70;53.60;;;;;;10352485;28;20052;-48
2024/04/03 09:10:08;;;;;;;1.30;1.20;;;21.70;53.50;;;;;;10391867;28;20535;-46
2024/04/03 09:15:11;;;;;;;1.50;0.98;;;21.70;53.30;;;;;;10392122;28;20050;-48
2024/04/03 09:20:19;;;;;;;1.30;0.93;;;21.60;53.10;;;;;;10394460;28;20048;-50
2024/04/03 09:25:21;;;;;;;1.42;0.80;;;21.70;53.10;;;;;;10393372;28;20132;-51
2024/04/03 09:30:24;;;;;;;1.33;1.00;;;21.70;53.00;;;;;;10392695;28;20099;-50
2024/04/03 09:35:28;;;;;;;1.38;1.20;;;21.70;52.80;;;;;;10387719;28;20049;-49
2024/04/03 09:40:32;;;;;;;1.58;0.98;;;21.80;52.60;;;;;;10387444;28;20049;-51
2024/04/03 09:45:35;;;;;;;1.20;1.00;;;21.80;52.60;;;;;;10398749;28;20068;-51
2024/04/03 09:50:37;;;;;;;1.20;1.00;;;22.00;51.70;;;;;;10392565;28;20047;-46
2024/04/03 09:55:39;;;;;;;1.10;1.00;;;21.90;52.00;;;;;;10392318;28;20059;-47
2024/04/03 10:00:50;;;;;;;1.48;1.00;;;21.60;52.90;;;;;;10351437;28;20128;-51
2024/04/03 10:05:58;;;;;;;;;;;21.60;53.30;;;;;;10389396;28;20049;-47
2024/04/03 10:11:03;;;;;;;1.13;0.70;;;21.50;53.30;;;;;;10353457;28;20014;-47
2024/04/03 10:16:07;;;;;;;0.82;0.82;;;21.50;53.40;;;;;;10356776;28;20121;-53
2024/04/03 10:21:09;;;;;;;1.02;0.90;;;21.60;53.30;;;;;;10382951;28;20117;-52
2024/04/03 10:26:11;;;;;;;1.70;1.02;;;21.60;53.20;;;;;;10354646;28;20042;-47
2024/04/03 10:31:18;;;;;;;0.90;0.77;;;21.50;53.10;;;;;;10354395;28;20053;-47
2024/04/03 10:36:19;;;;;;;0.70;0.65;;;21.60;53.10;;;;;;10384522;28;20082;-50
2024/04/03 10:41:22;;;;;;;1.33;0.90;;;21.70;53.10;;;;;;10348796;28;20421;-47
2024/04/03 10:46:25;;;;;;;1.00;0.90;;;21.60;53.10;;;;;;10355250;28;20517;-46
2024/04/03 10:51:26;;;;;;;1.00;0.75;;;21.70;53.10;;;;;;10387596;28;20037;-48
2024/04/03 10:56:28;;;;;;;1.02;0.80;;;21.70;53.00;;;;;;10387619;28;20053;-47
2024/04/03 11:01:31;;;;;;;1.60;0.90;;;21.80;52.70;;;;;;10392357;28;20494;-46
2024/04/03 11:06:34;;;;;;;1.98;0.95;;;21.80;52.50;;;;;;10395542;28;20079;-49
2024/04/03 11:11:39;;;;;;;1.00;0.75;;;21.70;52.70;;;;;;10393800;28;20124;-47
2024/04/03 11:16:42;;;;;;;1.30;0.80;;;21.70;52.80;;;;;;10397677;28;20049;-48
2024/04/03 11:21:43;;;;;;;0.80;0.73;;;21.60;52.90;;;;;;10396757;28;20053;-51
2024/04/03 11:26:46;;;;;;;0.88;0.88;;;21.60;52.90;;;;;;10393769;28;20049;-47
2024/04/03 11:31:49;;;;;;;0.93;0.82;;;21.60;53.00;;;;;;10388686;28;20064;-53
2024/04/03 11:36:51;;;;;;;1.58;1.13;;;21.60;53.10;;;;;;10388129;28;20049;-50
2024/04/03 11:41:52;;;;;;;1.60;0.80;;;21.50;52.90;;;;;;10402546;28;20045;-50
2024/04/03 11:46:55;;;;;;;0.90;0.73;;;21.50;53.00;;;;;;10396277;28;20132;-46
2024/04/03 11:51:57;;;;;;;2.10;0.90;;;21.60;52.60;;;;;;10393916;28;20433;-49
2024/04/03 11:57:00;;;;;;;0.77;0.77;;;21.60;52.50;;;;;;10389740;28;20455;-47
2024/04/03 12:02:03;;;;;;;1.05;0.80;;;21.80;52.10;;;;;;10401353;28;20528;-47
2024/04/03 12:07:05;;;;;;;0.88;0.60;;;21.60;52.70;;;;;;10387248;28;20137;-47
2024/04/03 12:12:07;;;;;;;0.93;0.82;;;21.40;53.10;;;;;;10388769;28;20112;-48
2024/04/03 12:17:10;;;;;;;1.45;1.00;;;21.40;53.30;;;;;;10395216;28;20133;-47
2024/04/03 12:22:12;;;;;;;0.70;0.70;;;21.40;53.30;;;;;;10398769;28;20049;-53
2024/04/03 12:27:16;;;;;;;1.48;1.00;;;21.40;53.20;;;;;;10395961;28;20056;-47
2024/04/03 12:32:19;;;;;;;0.85;0.80;;;21.50;53.10;;;;;;10393787;28;20049;-47
2024/04/03 12:37:20;;;;;;;0.80;0.80;;;21.50;53.00;;;;;;10388159;28;20078;-47
2024/04/03 12:42:22;;;;;;;0.63;0.60;;;21.50;53.10;;;;;;10392177;28;20053;-46
2024/04/03 12:47:26;;;;;;;1.30;0.75;;;21.50;53.10;;;;;;10389633;28;20044;-47
2024/04/03 12:52:28;;;;;;;0.80;0.80;;;22.10;52.00;;;;;;10388965;28;20048;-48
2024/04/03 12:57:29;;;;;;;0.80;0.80;;;22.30;51.40;;;;;;10393693;28;20055;-52
2024/04/03 13:02:32;;;;;;;0.70;0.70;;;22.20;51.40;;;;;;10393952;28;20045;-46
2024/04/03 13:07:34;;;;;;;0.80;0.70;;;22.20;51.30;;;;;;10395332;28;20075;-54
2024/04/03 13:12:35;;;;;;;1.00;0.80;;;22.10;51.50;;;;;;10390101;28;20128;-51
2024/04/03 13:17:38;;;;;;;1.05;0.70;;;22.10;51.60;;;;;;10390700;28;20080;-48
2024/04/03 13:22:40;;;;;;;0.80;0.75;;;22.10;51.80;;;;;;10392633;28;20144;-57
2024/04/03 13:27:42;;;;;;;0.77;0.77;;;22.00;51.90;;;;;;10389695;28;20075;-47
2024/04/03 13:32:45;;;;;;;1.13;0.70;;;22.00;51.90;;;;;;10388895;28;20088;-50
2024/04/03 13:37:47;;;;;;;0.52;0.52;;;22.00;51.90;;;;;;10403594;28;20052;-48
2024/04/03 13:42:49;;;;;;;0.60;0.60;;;22.40;51.20;;;;;;10395155;28;20136;-52
2024/04/03 13:47:52;;;;;;;0.57;0.57;;;22.40;50.80;;;;;;10395078;28;20049;-47
2024/04/03 13:52:54;;;;;;;0.77;0.70;;;22.30;51.10;;;;;;10388711;28;20140;-50
2024/04/03 13:57:57;;;;;;;0.75;0.68;;;22.30;51.10;;;;;;10398887;28;20136;-49
2024/04/03 14:03:00;;;;;;;1.33;0.60;;;22.30;51.30;;;;;;10390029;28;20064;-50
2024/04/03 14:08:02;;;;;;;0.77;0.77;;;22.50;50.90;;;;;;10388025;28;20140;-52
2024/04/03 14:13:04;;;;;;;0.60;0.60;;;22.70;50.50;;;;;;10388754;28;20065;-48
2024/04/03 14:18:07;;;;;;;0.55;0.52;;;22.60;50.40;;;;;;10399542;28;20053;-50
2024/04/03 14:23:09;;;;;;;0.63;0.50;;;22.60;50.60;;;;;;10397469;28;20080;-54
2024/04/03 14:28:10;;;;;;;1.00;0.70;;;22.50;50.90;;;;;;10391771;28;20054;-48
2024/04/03 14:33:13;;;;;;;3.65;1.10;;;22.50;51.00;;;;;;10389937;28;20044;-50
2024/04/03 14:38:15;;;;;;;6.47;0.88;;;22.80;51.10;;;;;;10396992;28;20055;-49
2024/04/03 14:43:16;;;;;;;9.35;1.02;;;22.80;51.30;;;;;;10391849;28;20132;-46
2024/04/03 14:48:19;;;;;;;5.60;0.77;;;22.90;51.10;;;;;;10390170;28;20045;-49
2024/04/03 14:53:21;;;;;;;6.53;1.08;;;22.90;51.20;;;;;;10392225;28;20060;-53
2024/04/03 14:58:23;;;;;;;12.48;1.10;;;23.00;51.00;;;;;;10390871;28;20112;-51
2024/04/03 15:03:26;;;;;;;4.15;1.08;;;22.90;51.70;;;;;;10388382;28;20409;-53
2024/04/03 15:08:28;;;;;;;8.82;1.00;;;23.10;51.50;;;;;;10381725;28;20502;-49
2024/04/03 15:13:30;;;;;;;4.95;1.08;;;23.00;51.70;;;;;;10391230;28;20125;-51
2024/04/03 15:18:32;;;;;;;2.63;1.00;;;23.00;52.00;;;;;;10395469;28;20048;-50
2024/04/03 15:23:34;;;;;;;6.25;1.20;;;23.00;51.90;;;;;;10369362;28;20062;-50
2024/04/03 15:28:36;;;;;;;2.72;1.05;;;23.10;51.40;;;;;;10384303;28;20055;-53
2024/04/03 15:33:39;;;;;;;2.90;1.20;;;23.10;51.30;;;;;;10392742;28;20564;-48
2024/04/03 15:38:41;;;;;;;4.00;1.17;;;23.10;50.90;;;;;;10393533;28;20500;-48
2024/04/03 15:43:42;;;;;;;2.20;1.33;;;23.10;50.80;;;;;;10390547;28;20056;-52
2024/04/03 15:48:45;;;;;;;4.05;1.88;;;23.10;50.60;;;;;;10400279;28;20136;-50
2024/04/03 15:53:47;;;;;;;8.50;1.90;;;23.20;50.60;;;;;;10395077;28;20553;-53
2024/04/03 15:58:48;;;;;;;6.65;2.13;;;23.10;50.30;;;;;;10386261;28;20484;-51
2024/04/03 16:03:51;;;;;;;4.50;2.15;;;23.10;50.10;;;;;;10393977;28;20067;-49
2024/04/03 16:08:53;;;;;;;4.63;1.90;;;23.20;49.60;;;;;;10395343;28;20421;-54
2024/04/03 16:13:54;;;;;;;4.28;1.50;;;23.10;49.10;;;;;;10394133;28;20059;-50
2024/04/03 16:18:57;;;;;;;3.80;1.40;;;23.20;48.70;;;;;;10368077;28;20053;-48
2024/04/03 16:23:59;;;;;;;1.63;1.25;;;23.20;48.30;;;;;;10377117;28;20576;-47
2024/04/03 16:29:01;;;;;;;2.92;1.55;;;23.20;48.90;;;;;;10390598;28;20493;-48
2024/04/03 16:34:04;;;;;;;3.88;2.05;;;23.20;48.60;;;;;;10394836;28;20052;-49
2024/04/03 16:39:08;;;;;;;4.47;1.90;;;23.20;48.70;;;;;;10398914;28;20128;-47
2024/04/03 16:44:12;;;;;;;9.07;2.42;;;23.20;49.10;;;;;;10398209;28;20037;-48
2024/04/03 16:49:15;;;;;;;7.13;3.10;;;23.20;49.50;;;;;;10396986;28;20045;-49
2024/04/03 16:54:17;;;;;;;6.78;3.53;;;23.20;49.90;;;;;;10396454;28;20049;-47
2024/04/03 16:59:18;;;;;;;17.60;14.02;;;23.10;50.10;;;;;;10397894;28;20465;-58
2024/04/03 17:04:21;;;;;;;57.20;42.67;;;23.10;50.20;;;;;;10398521;28;20494;-58
2024/04/03 17:09:23;;;;;;;112.93;83.13;;;23.20;50.90;;;;;;10404562;28;20502;-58
2024/04/03 17:14:24;;;;;;;115.28;82.75;;;23.20;50.30;;;;;;10404428;28;20083;-57
2024/04/03 17:19:27;;;;;;;94.50;66.15;;;23.20;51.30;;;;;;10398646;28;20049;-52
2024/04/03 17:24:29;;;;;;;64.05;47.92;;;23.10;52.40;;;;;;10372995;28;20049;-57
2024/04/03 17:29:30;;;;;;;51.00;37.63;;;23.20;52.10;;;;;;10392006;28;20132;-56
2024/04/03 17:34:33;;;;;;;38.63;28.60;;;23.30;51.70;;;;;;10372493;28;20042;-57
2024/04/03 17:39:36;;;;;;;35.25;24.58;;;23.50;51.10;;;;;;10360724;28;20506;-56
2024/04/03 17:44:37;;;;;;;25.95;19.42;;;23.60;50.50;;;;;;10366825;28;20060;-53
2024/04/03 17:49:40;;;;;;;29.15;18.25;;;23.60;50.70;;;;;;10370431;28;20554;-52
2024/04/03 17:54:42;;;;;;;25.10;17.05;;;23.60;50.90;;;;;;10403648;28;20098;-57
2024/04/03 17:59:44;;;;;;;19.25;14.80;;;23.60;50.90;;;;;;10399477;28;20045;-55
2024/04/03 18:04:48;;;;;;;16.05;12.45;;;23.60;51.30;;;;;;10372425;28;20146;-57
2024/04/03 18:09:49;;;;;;;18.25;12.20;;;23.70;50.90;;;;;;10392849;28;20049;-52
2024/04/03 18:14:51;;;;;;;16.48;11.40;;;23.90;50.90;;;;;;10403644;28;20049;-56
2024/04/03 18:19:54;;;;;;;12.25;9.50;;;24.00;50.60;;;;;;10411580;28;20572;-56
2024/04/03 18:24:56;;;;;;;10.40;8.77;;;24.00;50.50;;;;;;10408499;28;20552;-56
2024/04/03 18:29:58;;;;;;;10.30;7.50;;;23.90;50.50;;;;;;10388490;28;20057;-53
2024/04/03 18:35:01;;;;;;;10.77;7.43;;;23.90;50.50;;;;;;10397194;28;20059;-55
2024/04/03 18:40:04;;;;;;;9.60;6.93;;;24.20;49.60;;;;;;10396960;28;20057;-54
2024/04/03 18:45:07;;;;;;;8.50;6.10;;;23.90;50.30;;;;;;10397785;28;20056;-53
2024/04/03 18:50:11;;;;;;;15.68;6.15;;;24.00;50.50;;;;;;10399876;28;20049;-53
2024/04/03 18:55:13;;;;;;;11.90;5.68;;;24.20;50.50;;;;;;10404026;28;20132;-57
2024/04/03 19:00:15;;;;;;;17.33;5.00;;;24.30;50.50;;;;;;10398296;28;20141;-56
2024/04/03 19:05:19;;;;;;;15.63;4.97;;;24.10;51.00;;;;;;10398134;28;20099;-55
2024/04/03 19:10:21;;;;;;;6.90;4.75;;;24.30;50.70;;;;;;10386232;28;20140;-57
2024/04/03 19:15:22;;;;;;;10.98;4.25;;;24.20;50.60;;;;;;10394747;28;20052;-57
2024/04/03 19:20:26;;;;;;;7.70;4.10;;;24.20;50.50;;;;;;10395091;28;20042;-52
2024/04/03 19:25:30;;;;;;;13.70;3.90;;;24.20;50.40;;;;;;10403481;28;20152;-56
2024/04/03 19:30:32;;;;;;;9.25;3.72;;;24.00;51.40;;;;;;10398351;28;20618;-58
2024/04/03 19:35:36;;;;;;;7.05;3.42;;;24.10;50.50;;;;;;10399557;28;20039;-57
2024/04/03 19:40:38;;;;;;;9.70;3.42;;;24.10;50.30;;;;;;10395188;28;20049;-54
2024/04/03 19:45:40;;;;;;;10.50;3.13;;;23.90;50.60;;;;;;10397553;28;20068;-55
2024/04/03 19:50:43;;;;;;;7.25;3.00;;;23.70;51.00;;;;;;10391347;28;20132;-54
2024/04/03 19:55:45;;;;;;;5.60;2.63;;;23.60;51.20;;;;;;10395196;28;20060;-56
2024/04/03 20:00:47;;;;;;;6.03;2.70;;;23.50;51.20;;;;;;10400225;28;20470;-53
2024/04/03 20:05:50;;;;;;;4.85;2.72;;;23.50;51.10;;;;;;10373922;28;20049;-53
2024/04/03 20:10:53;;;;;;;6.65;3.00;;;23.60;50.60;;;;;;10401268;28;20064;-55
2024/04/03 20:15:54;;;;;;;3.55;2.30;;;23.50;50.70;;;;;;10364073;28;20052;-52
2024/04/03 20:20:57;;;;;;;3.03;2.20;;;23.70;50.20;;;;;;10361576;28;20046;-56
2024/04/03 20:25:59;;;;;;;6.55;2.13;;;23.70;50.10;;;;;;10363796;28;20137;-56
2024/04/03 20:31:01;;;;;;;6.05;2.38;;;23.80;49.70;;;;;;10404395;28;20466;-55
2024/04/03 20:36:04;;;;;;;3.55;2.08;;;23.80;49.50;;;;;;10370949;28;20049;-56
2024/04/03 20:41:06;;;;;;;6.28;2.08;;;23.90;49.40;;;;;;10410516;28;20449;-53
2024/04/03 20:46:08;;;;;;;4.45;2.30;;;23.90;49.40;;;;;;10371836;28;20415;-56
2024/04/03 20:51:11;;;;;;;2.58;1.90;;;23.70;49.70;;;;;;10411704;28;20558;-49
2024/04/03 20:56:12;;;;;;;3.20;1.88;;;23.60;49.70;;;;;;10407735;28;20511;-52
2024/04/03 21:01:14;;;;;;;3.92;1.80;;;23.70;49.70;;;;;;10406444;28;20046;-48
2024/04/03 21:06:17;;;;;;;3.30;1.90;;;23.60;49.60;;;;;;10402761;28;20087;-50
2024/04/03 21:11:19;;;;;;;4.60;1.80;;;23.30;50.20;;;;;;10405309;28;20041;-54
2024/04/03 21:16:20;;;;;;;2.75;1.77;;;23.50;49.70;;;;;;10406938;28;20401;-52
2024/04/03 21:21:23;;;;;;;2.20;1.67;;;23.50;49.70;;;;;;10409965;28;20037;-49
2024/04/03 21:26:25;;;;;;;2.83;1.77;;;23.50;49.60;;;;;;10408594;28;20041;-51
2024/04/03 21:31:28;;;;;;;2.33;1.60;;;23.50;49.50;;;;;;10406963;28;20046;-48
2024/04/03 21:36:31;;;;;;;2.15;1.60;;;23.50;49.30;;;;;;10407554;28;20052;-55
2024/04/03 21:41:33;;;;;;;2.22;1.65;;;23.40;49.20;;;;;;10401786;28;20900;-51
2024/04/03 21:46:34;;;;;;;3.35;1.55;;;23.00;50.40;;;;;;10403925;28;20408;-54
2024/04/03 21:51:38;;;;;;;4.43;1.85;;;23.20;49.60;;;;;;10401328;28;20620;-48
2024/04/03 21:56:39;;;;;;;2.85;1.52;;;23.00;50.40;;;;;;10407156;28;20063;-48
2024/04/03 22:01:41;;;;;;;1.88;1.40;;;22.90;50.40;;;;;;10400013;28;20056;-54
2024/04/03 22:06:44;;;;;;;2.33;1.52;;;22.70;50.80;;;;;;10401965;28;20049;-51
2024/04/03 22:11:46;;;;;;;2.45;1.50;;;22.80;50.40;;;;;;10400626;28;20044;-53
2024/04/03 22:16:47;;;;;;;3.40;1.30;;;22.90;50.30;;;;;;10404620;28;20057;-48
2024/04/03 22:21:50;;;;;;;1.48;1.38;;;22.80;50.30;;;;;;10402035;28;20048;-52
2024/04/03 22:26:52;;;;;;;2.08;1.50;;;22.70;50.30;;;;;;10404060;28;20050;-50
2024/04/03 22:31:53;;;;;;;2.45;1.27;;;22.80;50.20;;;;;;10404281;28;20034;-47
2024/04/03 22:36:56;;;;;;;1.98;1.40;;;22.60;50.50;;;;;;10410757;28;20047;-48
2024/04/03 22:41:58;;;;;;;1.65;1.20;;;22.60;50.50;;;;;;10400253;28;20051;-49
2024/04/03 22:47:00;;;;;;;2.60;1.40;;;22.70;50.40;;;;;;10402884;28;20057;-48
2024/04/03 22:52:03;;;;;;;2.08;1.35;;;22.60;50.30;;;;;;10402567;28;20044;-52
2024/04/03 22:57:05;;;;;;;2.45;1.20;;;22.60;50.40;;;;;;10402143;28;20046;-49
2024/04/03 23:02:07;;;;;;;1.13;1.02;;;22.60;50.30;;;;;;10409384;28;20128;-56
2024/04/03 23:07:10;;;;;;;1.75;1.30;;;22.50;50.50;;;;;;10398518;28;20053;-49
2024/04/03 23:12:11;;;;;;;2.45;1.20;;;22.30;50.90;;;;;;10402606;28;20498;-48
2024/04/03 23:17:13;;;;;;;1.60;1.30;;;22.40;50.40;;;;;;10399327;28;20045;-48
2024/04/03 23:22:16;;;;;;;1.25;1.13;;;22.40;50.30;;;;;;10396563;28;20037;-50
2024/04/03 23:27:18;;;;;;;1.50;1.27;;;22.50;50.40;;;;;;10407143;28;20052;-52
2024/04/03 23:32:20;;;;;;;2.08;1.27;;;22.40;50.60;;;;;;10399953;28;20628;-50
2024/04/03 23:37:23;;;;;;;2.95;1.35;;;22.40;50.40;;;;;;10403947;28;20053;-48
2024/04/03 23:42:25;;;;;;;2.13;1.25;;;22.30;50.40;;;;;;10396303;28;20049;-49
2024/04/03 23:47:26;;;;;;;1.40;1.30;;;22.30;50.70;;;;;;10396635;28;20045;-49
2024/04/03 23:52:29;;;;;;;1.70;0.98;;;22.30;50.50;;;;;;10398170;28;20111;-49
2024/04/03 23:57:31;;;;;;;1.40;1.20;;;22.30;50.50;;;;;;10400128;28;20050;-49
